sensor_id;sensor_type;location;lat;lon;timestamp;pressure;altitude;pressure_sealevel;temperature;humidity
42671;BME280;28283;55.426;37.756;2024-01-10T00:04:57;97791.72;;;-6.46;94.91
42671;BME280;28283;55.426;37.756;2024-01-10T00:09:58;98203.53;;;-3.63;94.64
42671;BME280;28283;55.426;37.756;2024-01-10T00:15:02;98200.19;;;-3.56;94.33
42671;BME280;28283;55.426;37.756;2024-01-10T00:20:03;98160.69;;;-3.64;94.64
42671;BME280;28283;55.426;37.756;2024-01-10T00:25:04;98091.88;;;-3.97;94.96
42671;BME280;28283;55.426;37.756;2024-01-10T00:30:05;98158.38;;;-3.20;94.82
42671;BME280;28283;55.426;37.756;2024-01-10T00:35:06;98142.38;;;-3.27;95.63
42671;BME280;28283;55.426;37.756;2024-01-10T00:40:06;98151.44;;;-3.11;95.62
42671;BME280;28283;55.426;37.756;2024-01-10T00:45:08;98096.22;;;-3.39;95.74
42671;BME280;28283;55.426;37.756;2024-01-10T00:50:08;98143.22;;;-2.98;95.90
42671;BME280;28283;55.426;37.756;2024-01-10T00:55:09;98129.31;;;-3.09;95.99
42671;BME280;28283;55.426;37.756;2024-01-10T01:00:10;98116.16;;;-2.81;96.33
42671;BME280;28283;55.426;37.756;2024-01-10T01:05:11;98170.31;;;-2.88;95.77
42671;BME280;28283;55.426;37.756;2024-01-10T01:10:11;98153.78;;;-2.80;96.40
42671;BME280;28283;55.426;37.756;2024-01-10T01:15:12;98144.13;;;-2.80;95.74
42671;BME280;28283;55.426;37.756;2024-01-10T01:20:12;98165.44;;;-2.55;96.61
42671;BME280;28283;55.426;37.756;2024-01-10T01:25:13;98149.50;;;-2.54;96.02
42671;BME280;28283;55.426;37.756;2024-01-10T01:30:13;98161.66;;;-2.25;95.75
42671;BME280;28283;55.426;37.756;2024-01-10T01:35:14;98171.16;;;-2.14;95.26
42671;BME280;28283;55.426;37.756;2024-01-10T01:40:17;98123.00;;;-2.24;94.92
42671;BME280;28283;55.426;37.756;2024-01-10T01:45:18;98151.94;;;-2.24;94.88
42671;BME280;28283;55.426;37.756;2024-01-10T01:50:19;98184.31;;;-1.78;94.48
42671;BME280;28283;55.426;37.756;2024-01-10T01:55:19;98198.03;;;-1.93;94.39
42671;BME280;28283;55.426;37.756;2024-01-10T02:00:20;98170.09;;;-2.03;95.19
42671;BME280;28283;55.426;37.756;2024-01-10T02:05:21;98188.53;;;-1.67;94.72
42671;BME280;28283;55.426;37.756;2024-01-10T02:10:22;98232.72;;;-1.97;95.35
42671;BME280;28283;55.426;37.756;2024-01-10T02:15:23;98253.00;;;-2.07;95.82
42671;BME280;28283;55.426;37.756;2024-01-10T02:20:24;98173.28;;;-2.45;96.19
42671;BME280;28283;55.426;37.756;2024-01-10T02:25:25;98245.34;;;-2.01;94.95
42671;BME280;28283;55.426;37.756;2024-01-10T02:30:25;98211.69;;;-2.53;93.90
42671;BME280;28283;55.426;37.756;2024-01-10T02:35:26;98250.50;;;-2.64;93.09
42671;BME280;28283;55.426;37.756;2024-01-10T02:40:27;98314.53;;;-2.46;94.39
42671;BME280;28283;55.426;37.756;2024-01-10T02:45:27;98316.09;;;-2.53;93.79
42671;BME280;28283;55.426;37.756;2024-01-10T02:50:28;98325.44;;;-2.88;92.26
42671;BME280;28283;55.426;37.756;2024-01-10T02:55:28;98351.47;;;-2.85;88.72
42671;BME280;28283;55.426;37.756;2024-01-10T03:00:29;98380.97;;;-3.01;90.09
42671;BME280;28283;55.426;37.756;2024-01-10T03:05:29;98399.66;;;-3.14;87.11
42671;BME280;28283;55.426;37.756;2024-01-10T03:10:30;98420.97;;;-2.97;88.18
42671;BME280;28283;55.426;37.756;2024-01-10T03:15:30;98436.31;;;-3.02;87.05
42671;BME280;28283;55.426;37.756;2024-01-10T03:20:31;98446.78;;;-3.22;86.71
42671;BME280;28283;55.426;37.756;2024-01-10T03:25:32;98464.44;;;-3.43;86.72
42671;BME280;28283;55.426;37.756;2024-01-10T03:30:32;98473.72;;;-3.39;84.73
42671;BME280;28283;55.426;37.756;2024-01-10T03:35:33;98453.44;;;-3.99;83.67
42671;BME280;28283;55.426;37.756;2024-01-10T03:40:34;98525.00;;;-3.76;83.23
42671;BME280;28283;55.426;37.756;2024-01-10T03:45:34;98555.97;;;-4.22;84.33
42671;BME280;28283;55.426;37.756;2024-01-10T03:50:35;98540.31;;;-4.76;83.72
42671;BME280;28283;55.426;37.756;2024-01-10T03:55:35;98606.22;;;-4.70;82.91
42671;BME280;28283;55.426;37.756;2024-01-10T04:00:36;98599.56;;;-5.53;83.35
42671;BME280;28283;55.426;37.756;2024-01-10T04:05:37;98542.81;;;-6.33;83.32
42671;BME280;28283;55.426;37.756;2024-01-10T04:10:37;98591.22;;;-6.52;82.37
42671;BME280;28283;55.426;37.756;2024-01-10T04:15:38;98699.03;;;-6.35;81.83
42671;BME280;28283;55.426;37.756;2024-01-10T04:20:39;98719.16;;;-6.61;81.77
42671;BME280;28283;55.426;37.756;2024-01-10T04:25:39;98724.94;;;-6.95;82.29
42671;BME280;28283;55.426;37.756;2024-01-10T04:30:40;98693.19;;;-7.53;81.23
42671;BME280;28283;55.426;37.756;2024-01-10T04:35:41;98785.09;;;-7.35;81.63
42671;BME280;28283;55.426;37.756;2024-01-10T04:40:42;98802.66;;;-7.37;82.07
42671;BME280;28283;55.426;37.756;2024-01-10T04:45:42;98747.13;;;-8.06;81.40
42671;BME280;28283;55.426;37.756;2024-01-10T04:50:43;98865.00;;;-7.59;81.79
42671;BME280;28283;55.426;37.756;2024-01-10T04:55:44;98881.31;;;-7.83;80.23
42671;BME280;28283;55.426;37.756;2024-01-10T05:00:44;98885.44;;;-8.08;80.64
42671;BME280;28283;55.426;37.756;2024-01-10T05:05:45;98865.56;;;-8.52;80.83
42671;BME280;28283;55.426;37.756;2024-01-10T05:10:46;98849.69;;;-8.77;81.34
42671;BME280;28283;55.426;37.756;2024-01-10T05:15:47;98950.63;;;-8.51;81.12
42671;BME280;28283;55.426;37.756;2024-01-10T05:20:48;98953.44;;;-8.54;80.38
42671;BME280;28283;55.426;37.756;2024-01-10T05:25:49;98975.13;;;-8.84;80.41
42671;BME280;28283;55.426;37.756;2024-01-10T05:30:53;98973.94;;;-8.94;80.68
42671;BME280;28283;55.426;37.756;2024-01-10T05:35:54;99003.34;;;-8.92;80.44
42671;BME280;28283;55.426;37.756;2024-01-10T05:40:55;99014.03;;;-8.80;80.64
42671;BME280;28283;55.426;37.756;2024-01-10T05:45:56;98997.69;;;-9.14;80.54
42671;BME280;28283;55.426;37.756;2024-01-10T05:50:57;99034.53;;;-9.06;81.02
42671;BME280;28283;55.426;37.756;2024-01-10T05:55:57;99054.69;;;-8.94;81.22
42671;BME280;28283;55.426;37.756;2024-01-10T06:00:58;99056.97;;;-9.19;80.77
42671;BME280;28283;55.426;37.756;2024-01-10T06:05:59;99054.28;;;-9.34;80.38
42671;BME280;28283;55.426;37.756;2024-01-10T06:11:03;99059.81;;;-9.40;80.19
42671;BME280;28283;55.426;37.756;2024-01-10T06:16:04;99095.94;;;-9.34;80.23
42671;BME280;28283;55.426;37.756;2024-01-10T06:21:05;99147.59;;;-9.10;79.79
42671;BME280;28283;55.426;37.756;2024-01-10T06:26:05;99174.69;;;-9.30;79.94
42671;BME280;28283;55.426;37.756;2024-01-10T06:31:06;99178.88;;;-9.28;80.20
42671;BME280;28283;55.426;37.756;2024-01-10T06:36:07;99199.88;;;-9.31;80.07
42671;BME280;28283;55.426;37.756;2024-01-10T06:41:11;99130.59;;;-9.67;79.89
42671;BME280;28283;55.426;37.756;2024-01-10T06:46:14;99155.94;;;-9.70;80.28
42671;BME280;28283;55.426;37.756;2024-01-10T06:51:16;99241.53;;;-9.31;79.80
42671;BME280;28283;55.426;37.756;2024-01-10T06:56:16;99243.13;;;-9.46;79.63
42671;BME280;28283;55.426;37.756;2024-01-10T07:01:17;99120.00;;;-10.32;79.57
42671;BME280;28283;55.426;37.756;2024-01-10T07:06:18;99180.47;;;-10.11;78.87
42671;BME280;28283;55.426;37.756;2024-01-10T07:11:18;99274.81;;;-9.55;79.34
42671;BME280;28283;55.426;37.756;2024-01-10T07:16:22;99217.88;;;-10.13;78.85
42671;BME280;28283;55.426;37.756;2024-01-10T07:21:22;99286.47;;;-9.99;78.39
42671;BME280;28283;55.426;37.756;2024-01-10T07:26:23;99316.97;;;-9.83;78.68
42671;BME280;28283;55.426;37.756;2024-01-10T07:31:24;99321.03;;;-9.77;79.20
42671;BME280;28283;55.426;37.756;2024-01-10T07:36:25;99336.25;;;-9.70;79.16
42671;BME280;28283;55.426;37.756;2024-01-10T07:41:30;99339.03;;;-9.92;79.08
42671;BME280;28283;55.426;37.756;2024-01-10T07:46:30;99343.94;;;-9.86;78.91
42671;BME280;28283;55.426;37.756;2024-01-10T07:51:31;99282.94;;;-10.15;78.84
42671;BME280;28283;55.426;37.756;2024-01-10T07:56:33;99373.00;;;-9.58;78.16
42671;BME280;28283;55.426;37.756;2024-01-10T08:01:33;99268.03;;;-10.11;78.28
42671;BME280;28283;55.426;37.756;2024-01-10T08:06:34;99368.28;;;-9.50;77.33
42671;BME280;28283;55.426;37.756;2024-01-10T08:11:35;99389.66;;;-9.44;76.57
42671;BME280;28283;55.426;37.756;2024-01-10T08:16:36;99388.97;;;-9.30;77.64
42671;BME280;28283;55.426;37.756;2024-01-10T08:21:36;99379.94;;;-9.23;77.15
42671;BME280;28283;55.426;37.756;2024-01-10T08:26:37;99333.28;;;-9.62;75.22
42671;BME280;28283;55.426;37.756;2024-01-10T08:31:41;99390.44;;;-9.24;75.60
42671;BME280;28283;55.426;37.756;2024-01-10T08:36:41;99355.72;;;-9.60;76.82
42671;BME280;28283;55.426;37.756;2024-01-10T08:41:42;99360.00;;;-9.58;77.08
42671;BME280;28283;55.426;37.756;2024-01-10T08:46:44;99401.47;;;-9.36;77.03
42671;BME280;28283;55.426;37.756;2024-01-10T08:51:45;99366.91;;;-9.76;77.26
42671;BME280;28283;55.426;37.756;2024-01-10T08:56:46;99417.28;;;-9.41;76.92
42671;BME280;28283;55.426;37.756;2024-01-10T09:01:47;99381.81;;;-9.61;76.74
42671;BME280;28283;55.426;37.756;2024-01-10T09:06:48;99358.53;;;-9.64;77.50
42671;BME280;28283;55.426;37.756;2024-01-10T09:11:49;99406.75;;;-9.38;77.40
42671;BME280;28283;55.426;37.756;2024-01-10T09:16:49;99387.81;;;-9.42;77.46
42671;BME280;28283;55.426;37.756;2024-01-10T09:21:50;99304.41;;;-9.75;77.74
42671;BME280;28283;55.426;37.756;2024-01-10T09:26:52;99461.31;;;-8.65;77.43
42671;BME280;28283;55.426;37.756;2024-01-10T09:31:54;99380.72;;;-9.21;77.23
42671;BME280;28283;55.426;37.756;2024-01-10T09:36:55;99319.16;;;-9.39;77.05
42671;BME280;28283;55.426;37.756;2024-01-10T09:41:55;99446.00;;;-8.54;76.52
42671;BME280;28283;55.426;37.756;2024-01-10T09:46:58;99462.25;;;-8.33;76.02
42671;BME280;28283;55.426;37.756;2024-01-10T09:51:59;99468.16;;;-8.29;75.73
42671;BME280;28283;55.426;37.756;2024-01-10T09:57:02;99467.47;;;-8.33;75.09
42671;BME280;28283;55.426;37.756;2024-01-10T10:02:03;99474.69;;;-8.20;75.45
42671;BME280;28283;55.426;37.756;2024-01-10T10:07:05;99430.28;;;-8.87;74.69
42671;BME280;28283;55.426;37.756;2024-01-10T10:12:05;99411.84;;;-9.00;74.83
42671;BME280;28283;55.426;37.756;2024-01-10T10:17:16;99423.09;;;-8.65;73.21
42671;BME280;28283;55.426;37.756;2024-01-10T10:22:17;99427.22;;;-8.27;72.32
42671;BME280;28283;55.426;37.756;2024-01-10T10:27:17;99464.28;;;-8.04;72.54
42671;BME280;28283;55.426;37.756;2024-01-10T10:32:18;99439.50;;;-8.45;70.35
42671;BME280;28283;55.426;37.756;2024-01-10T10:37:19;99310.50;;;-9.39;71.57
42671;BME280;28283;55.426;37.756;2024-01-10T10:42:19;99483.81;;;-8.45;71.70
42671;BME280;28283;55.426;37.756;2024-01-10T10:47:21;99483.88;;;-8.47;73.17
42671;BME280;28283;55.426;37.756;2024-01-10T10:52:23;99483.03;;;-8.31;74.08
42671;BME280;28283;55.426;37.756;2024-01-10T10:57:27;99324.13;;;-9.17;73.38
42671;BME280;28283;55.426;37.756;2024-01-10T11:02:28;99452.09;;;-8.37;73.70
42671;BME280;28283;55.426;37.756;2024-01-10T11:07:28;99421.78;;;-8.56;74.07
42671;BME280;28283;55.426;37.756;2024-01-10T11:23:22;99351.25;;;-9.04;72.63
42671;BME280;28283;55.426;37.756;2024-01-10T11:28:32;99448.28;;;-8.48;72.28
42671;BME280;28283;55.426;37.756;2024-01-10T11:33:35;99452.91;;;-8.70;71.45
42671;BME280;28283;55.426;37.756;2024-01-10T11:49:13;99448.69;;;-8.55;74.19
42671;BME280;28283;55.426;37.756;2024-01-10T11:59:43;99483.94;;;-8.15;72.33
42671;BME280;28283;55.426;37.756;2024-01-10T12:04:48;99482.00;;;-8.27;70.39
42671;BME280;28283;55.426;37.756;2024-01-10T12:09:48;99498.25;;;-8.39;71.78
42671;BME280;28283;55.426;37.756;2024-01-10T12:14:50;99447.53;;;-8.50;71.24
42671;BME280;28283;55.426;37.756;2024-01-10T12:19:51;99441.25;;;-8.80;70.02
42671;BME280;28283;55.426;37.756;2024-01-10T12:24:53;99472.97;;;-8.55;69.40
42671;BME280;28283;55.426;37.756;2024-01-10T12:29:54;99455.81;;;-8.76;69.39
42671;BME280;28283;55.426;37.756;2024-01-10T12:34:59;99437.28;;;-8.88;69.33
42671;BME280;28283;55.426;37.756;2024-01-10T12:40:00;99422.22;;;-9.17;68.82
42671;BME280;28283;55.426;37.756;2024-01-10T12:45:01;99506.22;;;-8.95;70.08
42671;BME280;28283;55.426;37.756;2024-01-10T12:50:01;99508.59;;;-9.27;70.88
42671;BME280;28283;55.426;37.756;2024-01-10T12:55:02;99499.06;;;-9.09;71.46
42671;BME280;28283;55.426;37.756;2024-01-10T13:00:05;99485.91;;;-9.25;70.99
42671;BME280;28283;55.426;37.756;2024-01-10T13:05:07;99490.81;;;-8.99;70.41
42671;BME280;28283;55.426;37.756;2024-01-10T13:10:10;99493.72;;;-9.06;69.60
42671;BME280;28283;55.426;37.756;2024-01-10T13:15:12;99479.94;;;-9.46;70.69
42671;BME280;28283;55.426;37.756;2024-01-10T13:20:13;99429.13;;;-9.72;71.04
42671;BME280;28283;55.426;37.756;2024-01-10T13:25:14;99479.47;;;-9.54;71.08
42671;BME280;28283;55.426;37.756;2024-01-10T13:30:16;99477.81;;;-9.74;71.59
42671;BME280;28283;55.426;37.756;2024-01-10T13:35:16;99458.44;;;-9.87;72.71
42671;BME280;28283;55.426;37.756;2024-01-10T13:40:17;99402.63;;;-10.18;72.62
42671;BME280;28283;55.426;37.756;2024-01-10T13:45:20;99426.72;;;-10.14;73.78
42671;BME280;28283;55.426;37.756;2024-01-10T13:50:21;99415.19;;;-10.47;74.60
42671;BME280;28283;55.426;37.756;2024-01-10T13:55:22;99458.38;;;-10.05;74.38
42671;BME280;28283;55.426;37.756;2024-01-10T14:00:24;99391.94;;;-10.50;73.84
42671;BME280;28283;55.426;37.756;2024-01-10T14:05:26;99369.03;;;-10.61;74.62
42671;BME280;28283;55.426;37.756;2024-01-10T14:10:27;99414.22;;;-10.25;74.97
42671;BME280;28283;55.426;37.756;2024-01-10T14:15:28;99433.41;;;-10.09;75.17
42671;BME280;28283;55.426;37.756;2024-01-10T14:20:29;99427.50;;;-10.12;75.06
42671;BME280;28283;55.426;37.756;2024-01-10T14:25:30;99394.63;;;-10.32;75.48
42671;BME280;28283;55.426;37.756;2024-01-10T14:30:31;99410.44;;;-10.18;75.26
42671;BME280;28283;55.426;37.756;2024-01-10T14:35:32;99296.59;;;-10.87;75.45
42671;BME280;28283;55.426;37.756;2024-01-10T14:40:33;99395.97;;;-10.24;76.20
42671;BME280;28283;55.426;37.756;2024-01-10T14:45:34;99354.72;;;-10.50;75.31
42671;BME280;28283;55.426;37.756;2024-01-10T14:50:34;99407.75;;;-10.35;75.29
42671;BME280;28283;55.426;37.756;2024-01-10T14:55:35;99398.34;;;-10.38;75.76
42671;BME280;28283;55.426;37.756;2024-01-10T15:00:36;99288.97;;;-11.11;76.18
42671;BME280;28283;55.426;37.756;2024-01-10T15:05:37;99384.41;;;-10.56;76.05
42671;BME280;28283;55.426;37.756;2024-01-10T15:10:37;99358.56;;;-10.78;75.72
42671;BME280;28283;55.426;37.756;2024-01-10T15:15:44;99368.47;;;-10.88;75.54
42671;BME280;28283;55.426;37.756;2024-01-10T15:20:45;99389.78;;;-10.80;76.54
42671;BME280;28283;55.426;37.756;2024-01-10T15:25:46;99319.09;;;-11.27;76.34
42671;BME280;28283;55.426;37.756;2024-01-10T15:30:46;99251.50;;;-11.65;75.86
42671;BME280;28283;55.426;37.756;2024-01-10T15:35:47;99348.50;;;-11.06;76.63
42671;BME280;28283;55.426;37.756;2024-01-10T15:40:48;99358.47;;;-10.97;76.26
42671;BME280;28283;55.426;37.756;2024-01-10T15:45:49;99363.56;;;-10.94;75.84
42671;BME280;28283;55.426;37.756;2024-01-10T15:50:50;99281.84;;;-11.47;76.46
42671;BME280;28283;55.426;37.756;2024-01-10T15:55:51;99363.16;;;-10.85;76.76
42671;BME280;28283;55.426;37.756;2024-01-10T16:00:51;99304.34;;;-11.27;76.04
42671;BME280;28283;55.426;37.756;2024-01-10T16:05:52;99364.00;;;-10.84;75.70
42671;BME280;28283;55.426;37.756;2024-01-10T16:10:53;99316.50;;;-11.07;76.77
42671;BME280;28283;55.426;37.756;2024-01-10T16:15:54;99343.16;;;-10.83;76.42
42671;BME280;28283;55.426;37.756;2024-01-10T16:20:56;99280.81;;;-11.22;76.81
42671;BME280;28283;55.426;37.756;2024-01-10T16:25:57;99328.75;;;-10.90;76.25
42671;BME280;28283;55.426;37.756;2024-01-10T16:30:57;99283.59;;;-11.06;76.87
42671;BME280;28283;55.426;37.756;2024-01-10T16:35:58;99300.13;;;-10.88;77.19
42671;BME280;28283;55.426;37.756;2024-01-10T16:40:59;99244.59;;;-11.05;76.28
42671;BME280;28283;55.426;37.756;2024-01-10T16:45:59;99265.53;;;-10.89;76.88
42671;BME280;28283;55.426;37.756;2024-01-10T16:51:00;99235.25;;;-11.09;77.14
42671;BME280;28283;55.426;37.756;2024-01-10T16:56:00;99244.31;;;-10.99;76.82
42671;BME280;28283;55.426;37.756;2024-01-10T17:01:02;99218.31;;;-10.97;76.89
42671;BME280;28283;55.426;37.756;2024-01-10T17:06:03;99238.47;;;-10.83;77.15
42671;BME280;28283;55.426;37.756;2024-01-10T17:11:04;99062.69;;;-11.76;77.47
42671;BME280;28283;55.426;37.756;2024-01-10T17:16:06;99052.34;;;-11.57;76.97
42671;BME280;28283;55.426;37.756;2024-01-10T17:21:06;99118.88;;;-11.18;77.17
42671;BME280;28283;55.426;37.756;2024-01-10T17:26:07;99146.94;;;-10.88;77.23
42671;BME280;28283;55.426;37.756;2024-01-10T17:31:12;99123.25;;;-11.00;77.45
42671;BME280;28283;55.426;37.756;2024-01-10T17:36:13;99077.16;;;-11.33;77.09
42671;BME280;28283;55.426;37.756;2024-01-10T17:41:13;99103.94;;;-11.13;76.65
42671;BME280;28283;55.426;37.756;2024-01-10T17:46:15;99111.94;;;-10.99;77.03
42671;BME280;28283;55.426;37.756;2024-01-10T17:51:15;99090.41;;;-11.01;77.39
42671;BME280;28283;55.426;37.756;2024-01-10T17:56:21;98945.63;;;-11.86;77.47
42671;BME280;28283;55.426;37.756;2024-01-10T18:01:22;99054.25;;;-11.05;77.60
42671;BME280;28283;55.426;37.756;2024-01-10T18:06:23;99054.63;;;-10.94;77.81
42671;BME280;28283;55.426;37.756;2024-01-10T18:11:23;99031.94;;;-10.90;77.66
42671;BME280;28283;55.426;37.756;2024-01-10T18:16:25;99017.19;;;-10.90;77.10
42671;BME280;28283;55.426;37.756;2024-01-10T18:21:25;98926.53;;;-11.29;78.32
42671;BME280;28283;55.426;37.756;2024-01-10T18:26:26;98956.72;;;-10.92;77.67
42671;BME280;28283;55.426;37.756;2024-01-10T18:31:27;98912.59;;;-10.74;77.79
42671;BME280;28283;55.426;37.756;2024-01-10T18:36:28;98910.28;;;-10.81;78.02
42671;BME280;28283;55.426;37.756;2024-01-10T18:41:30;98920.97;;;-10.69;78.36
42671;BME280;28283;55.426;37.756;2024-01-10T18:46:31;98909.00;;;-10.72;78.26
42671;BME280;28283;55.426;37.756;2024-01-10T18:51:32;98906.31;;;-10.70;78.29
42671;BME280;28283;55.426;37.756;2024-01-10T18:56:32;98831.53;;;-10.97;78.15
42671;BME280;28283;55.426;37.756;2024-01-10T19:01:33;98700.13;;;-11.66;79.10
42671;BME280;28283;55.426;37.756;2024-01-10T19:06:34;98780.91;;;-11.06;78.97
42671;BME280;28283;55.426;37.756;2024-01-10T19:11:35;98805.66;;;-10.65;78.41
42671;BME280;28283;55.426;37.756;2024-01-10T19:16:36;98690.81;;;-11.20;79.02
42671;BME280;28283;55.426;37.756;2024-01-10T19:21:38;98797.31;;;-10.39;78.92
42671;BME280;28283;55.426;37.756;2024-01-10T19:26:39;98771.91;;;-10.33;79.13
42671;BME280;28283;55.426;37.756;2024-01-10T19:31:39;98769.59;;;-10.24;79.39
42671;BME280;28283;55.426;37.756;2024-01-10T19:36:40;98723.53;;;-10.52;79.03
42671;BME280;28283;55.426;37.756;2024-01-10T19:41:41;98748.72;;;-10.22;79.81
42671;BME280;28283;55.426;37.756;2024-01-10T19:46:42;98686.00;;;-10.62;79.81
42671;BME280;28283;55.426;37.756;2024-01-10T19:51:43;98715.19;;;-10.11;79.61
42671;BME280;28283;55.426;37.756;2024-01-10T19:56:45;98619.06;;;-10.57;79.41
42671;BME280;28283;55.426;37.756;2024-01-10T20:01:46;98649.38;;;-10.11;79.52
42671;BME280;28283;55.426;37.756;2024-01-10T20:06:47;98574.94;;;-10.43;80.25
42671;BME280;28283;55.426;37.756;2024-01-10T20:11:47;98412.63;;;-11.25;80.17
42671;BME280;28283;55.426;37.756;2024-01-10T20:16:48;98521.72;;;-10.35;80.31
42671;BME280;28283;55.426;37.756;2024-01-10T20:21:49;98537.59;;;-10.11;80.55
42671;BME280;28283;55.426;37.756;2024-01-10T20:26:50;98475.13;;;-10.53;80.59
42671;BME280;28283;55.426;37.756;2024-01-10T20:31:50;98544.28;;;-9.79;80.94
42671;BME280;28283;55.426;37.756;2024-01-10T20:36:51;98522.28;;;-9.73;81.45
42671;BME280;28283;55.426;37.756;2024-01-10T20:41:51;98434.28;;;-10.08;80.80
42671;BME280;28283;55.426;37.756;2024-01-10T20:46:54;98456.63;;;-9.76;81.06
42671;BME280;28283;55.426;37.756;2024-01-10T20:51:55;98414.38;;;-9.94;80.93
42671;BME280;28283;55.426;37.756;2024-01-10T20:56:55;98405.50;;;-9.90;80.92
42671;BME280;28283;55.426;37.756;2024-01-10T21:01:56;98415.63;;;-9.58;81.39
42671;BME280;28283;55.426;37.756;2024-01-10T21:06:56;98406.16;;;-9.60;81.74
42671;BME280;28283;55.426;37.756;2024-01-10T21:11:59;98371.94;;;-9.53;81.68
42671;BME280;28283;55.426;37.756;2024-01-10T21:17:00;98347.19;;;-9.46;81.97
42671;BME280;28283;55.426;37.756;2024-01-10T21:22:01;98340.75;;;-9.41;81.98
42671;BME280;28283;55.426;37.756;2024-01-10T21:27:01;98234.03;;;-9.79;81.45
42671;BME280;28283;55.426;37.756;2024-01-10T21:32:02;98276.66;;;-9.42;81.70
42671;BME280;28283;55.426;37.756;2024-01-10T21:37:03;98282.69;;;-9.28;82.26
42671;BME280;28283;55.426;37.756;2024-01-10T21:42:04;98255.75;;;-9.14;82.45
42671;BME280;28283;55.426;37.756;2024-01-10T21:47:05;98232.94;;;-9.24;82.70
42671;BME280;28283;55.426;37.756;2024-01-10T21:52:06;98186.94;;;-9.36;83.00
42671;BME280;28283;55.426;37.756;2024-01-10T21:57:07;98203.13;;;-8.94;82.54
42671;BME280;28283;55.426;37.756;2024-01-10T22:02:07;98166.88;;;-8.84;82.67
42671;BME280;28283;55.426;37.756;2024-01-10T22:07:08;98140.44;;;-8.91;82.89
42671;BME280;28283;55.426;37.756;2024-01-10T22:12:09;98078.09;;;-9.05;83.60
42671;BME280;28283;55.426;37.756;2024-01-10T22:17:10;98064.13;;;-9.04;83.74
42671;BME280;28283;55.426;37.756;2024-01-10T22:22:11;98006.88;;;-9.17;83.58
42671;BME280;28283;55.426;37.756;2024-01-10T22:27:11;98046.78;;;-8.68;84.07
42671;BME280;28283;55.426;37.756;2024-01-10T22:32:12;98005.84;;;-8.66;84.10
42671;BME280;28283;55.426;37.756;2024-01-10T22:37:13;97998.63;;;-8.62;83.90
42671;BME280;28283;55.426;37.756;2024-01-10T22:42:14;97975.41;;;-8.54;84.79
42671;BME280;28283;55.426;37.756;2024-01-10T22:47:14;97886.84;;;-9.12;84.66
42671;BME280;28283;55.426;37.756;2024-01-10T22:52:15;97966.69;;;-8.42;84.38
42671;BME280;28283;55.426;37.756;2024-01-10T22:57:16;97854.69;;;-9.00;84.77
42671;BME280;28283;55.426;37.756;2024-01-10T23:02:16;97923.91;;;-8.39;85.19
42671;BME280;28283;55.426;37.756;2024-01-10T23:07:17;97888.94;;;-8.37;84.82
42671;BME280;28283;55.426;37.756;2024-01-10T23:12:18;97874.63;;;-8.31;84.95
42671;BME280;28283;55.426;37.756;2024-01-10T23:17:19;97833.69;;;-8.52;84.98
42671;BME280;28283;55.426;37.756;2024-01-10T23:22:19;97772.09;;;-8.64;85.26
42671;BME280;28283;55.426;37.756;2024-01-10T23:27:20;97823.31;;;-8.19;85.24
42671;BME280;28283;55.426;37.756;2024-01-10T23:32:23;97756.63;;;-8.33;84.61
42671;BME280;28283;55.426;37.756;2024-01-10T23:37:24;97766.56;;;-8.16;85.76
42671;BME280;28283;55.426;37.756;2024-01-10T23:42:24;97702.88;;;-8.34;84.93
42671;BME280;28283;55.426;37.756;2024-01-10T23:47:25;97700.09;;;-8.21;85.95
42671;BME280;28283;55.426;37.756;2024-01-10T23:52:25;97672.88;;;-8.29;85.92
42671;BME280;28283;55.426;37.756;2024-01-10T23:57:26;97688.69;;;-7.88;85.42
